Impacts TAF Board
For situational awareness. Not to be used for flight planning purposes.
IDs:

KMDW - Chicago/Midway Intl, IL, US

Issued at 0247 UTC 20 Mar 2019
Updated at 0401 UTC 20 Mar 2019
Potential Impact None Slight Moderate High
Time0353Z 20/04Z 20/05Z 20/06Z 20/07Z 20/08Z 20/09Z 20/10Z 20/11Z 20/12Z 20/13Z 20/14Z 20/15Z 20/16Z>>
Type OBS PRVL PRVL PRVL PRVL PRVL PRVL PRVL PRVL PRVL PRVL
  [TEMP]  
PRVL
  [TEMP]  
PRVL
  [TEMP]  
PRVL
VIS 10 >6 >6 >6 >6 >6 >6 >6 >6 5 5
  [3]  
5
  [3]  
5
  [3]  
5
CIG 130 120 120 120 120 120 120 40 40 20 20
  [10]  
20
  [10]  
20
  [10]  
20
Cover OVC BKN BKN BKN BKN BKN BKN OVC OVC OVC OVC
  [OVC]  
OVC
  [OVC]  
OVC
  [OVC]  
OVC
FltCat VFR VFR VFR VFR VFR VFR VFR VFR VFR MVFR MVFR
  [MVFR]  
MVFR
  [MVFR]  
MVFR
  [MVFR]  
MVFR
WX -- -- -- -- -- -- -- VCSH VCSH -RA -RA
  [-RA]  
-RA
  [-RA]  
-RA
  [-RA]  
-RA
WDir 170 180 180 180 180 180 180 190 190 190 190
[190]
190
[190]
190
[190]
190
WSpd 5 6 6 6 6 6 6 9 9 11 11
  [11]  
11
  [11]  
11
  [11]  
11
WGst -- -- -- -- -- -- -- -- -- -- --
  [--]  
--
  [--]  
--
  [--]  
--
Raw TAF
KMDW 200247Z 2003/2106 18006KT P6SM BKN120
  FM201000 19009KT P6SM VCSH OVC040
  FM201200 19011KT 5SM -RA OVC020
  TEMPO 2013/2016 3SM -RA OVC010
  FM201700 22012G19KT P6SM VCSH OVC015
  FM202200 25011KT 6SM -SHRA BKN022
  FM210200 29012KT P6SM OVC030


Raw METAR
KMDW 200353Z 17005KT 10SM BKN130 OVC250 06/M03 A3024 RMK AO2 SLP244 T00611028
KMDW 200253Z 17006KT 10SM FEW180 BKN250 07/M03 A3025 RMK AO2 SLP251 T00671028 56008
KMDW 200153Z 18005KT 10SM FEW150 SCT180 BKN250 07/M03 A3026 RMK AO2 SLP254 T00721028
KMDW 200053Z 19005KT 10SM SCT180 BKN250 08/M03 A3027 RMK AO2 SLP258 T00781033

METAR Board
Radar Display
Forecast Discussion
For situational awareness. Not to be used for flight planning purposes.